Time;durP1;ratioP1;P1;durP2;ratioP2;P2;SDS_P1;SDS_P2;PMS_P1;PMS_P2;Temp;Humidity;BMP_temperature;BMP_pressure;BME280_temperature;BME280_humidity;BME280_pressure;Samples;Min_cycle;Max_cycle;Signal;HPM_P1;HPM_P2
2021/09/22 00:00:44;;;;;;;2.10;1.60;;;;;;;7.54;73.94;99372.88;5062662;28;20029;-61
2021/09/22 00:03:10;;;;;;;1.50;1.40;;;;;;;7.22;75.66;99359.28;5059447;28;20113;-62
2021/09/22 00:05:35;;;;;;;1.50;1.40;;;;;;;7.40;75.30;99370.38;5055703;28;20021;-62
2021/09/22 00:08:01;;;;;;;2.05;1.20;;;;;;;7.57;73.76;99364.63;5066181;28;20037;-62
2021/09/22 00:10:26;;;;;;;1.65;1.30;;;;;;;7.27;75.32;99365.97;5053805;28;20025;-62
2021/09/22 00:12:54;;;;;;;1.52;1.42;;;;;;;7.11;76.18;99344.13;5061266;28;20072;-60
2021/09/22 00:15:22;;;;;;;2.25;1.42;;;;;;;7.27;75.64;99354.47;5059437;28;20037;-62
2021/09/22 00:17:48;;;;;;;2.25;1.45;;;;;;;7.28;76.04;99361.50;5036800;28;20040;-62
2021/09/22 00:20:15;;;;;;;2.17;1.40;;;;;;;7.31;75.76;99366.59;5068136;28;20028;-62
2021/09/22 00:22:41;;;;;;;2.40;1.42;;;;;;;7.35;75.30;99346.75;5057962;28;20039;-62
2021/09/22 00:25:08;;;;;;;1.25;1.15;;;;;;;7.39;75.06;99366.00;5064229;28;20020;-63
2021/09/22 00:27:33;;;;;;;1.40;1.30;;;;;;;7.24;75.37;99360.88;5064408;28;20473;-63
2021/09/22 00:30:10;;;;;;;1.83;1.52;;;;;;;7.26;75.41;99363.41;5056093;28;20029;-62
2021/09/22 00:32:35;;;;;;;2.33;1.70;;;;;;;7.18;75.81;99353.34;5068728;28;20035;-63
2021/09/22 00:35:01;;;;;;;1.85;1.50;;;;;;;7.20;75.67;99346.06;5060999;28;20028;-62
2021/09/22 00:37:26;;;;;;;1.88;1.60;;;;;;;7.06;76.29;99341.78;5060903;28;20603;-64
2021/09/22 00:39:52;;;;;;;3.42;1.67;;;;;;;7.19;75.64;99347.03;5068660;28;20626;-62
2021/09/22 00:42:18;;;;;;;1.85;1.35;;;;;;;7.15;75.33;99349.09;5054711;28;20500;-63
2021/09/22 00:45:03;;;;;;;2.03;1.70;;;;;;;7.14;75.73;99341.22;5066717;28;20025;-62
2021/09/22 00:47:29;;;;;;;2.17;1.80;;;;;;;6.99;75.81;99330.75;5064828;28;20033;-62
2021/09/22 00:49:54;;;;;;;3.50;1.95;;;;;;;7.18;75.65;99356.00;5039205;28;20056;-62
2021/09/22 00:52:21;;;;;;;2.45;1.60;;;;;;;7.15;75.95;99349.09;5069009;28;20060;-63
2021/09/22 00:54:47;;;;;;;2.40;1.80;;;;;;;7.11;76.55;99357.44;5058900;28;20058;-62
2021/09/22 00:57:20;;;;;;;1.75;1.08;;;;;;;7.33;74.94;99354.88;5060464;28;20104;-63
2021/09/22 00:59:46;;;;;;;3.00;1.90;;;;;;;7.18;74.92;99340.03;5067155;28;20028;-63
2021/09/22 01:02:12;;;;;;;1.73;1.50;;;;;;;6.91;76.19;99332.28;5055676;28;20435;-63
2021/09/22 01:04:38;;;;;;;2.50;1.83;;;;;;;7.06;75.88;99338.28;5067510;28;20385;-64
2021/09/22 01:07:06;;;;;;;2.13;1.70;;;;;;;7.09;75.50;99338.88;5061519;28;20194;-63
2021/09/22 01:09:32;;;;;;;3.20;1.83;;;;;;;7.16;75.31;99347.28;5058018;28;20033;-63
2021/09/22 01:11:58;;;;;;;2.55;1.90;;;;;;;7.01;76.04;99343.94;5067068;28;20127;-64
2021/09/22 01:14:25;;;;;;;3.90;2.30;;;;;;;6.89;77.14;99337.72;5055780;28;20082;-63
2021/09/22 01:16:51;;;;;;;2.88;2.13;;;;;;;6.98;76.24;99337.00;5063878;28;20040;-62
2021/09/22 01:19:19;;;;;;;3.33;2.55;;;;;;;7.02;76.21;99341.19;5062789;28;20031;-64
2021/09/22 01:21:47;;;;;;;3.38;1.92;;;;;;;7.05;76.32;99340.09;5057574;28;20036;-63
2021/09/22 01:24:12;;;;;;;2.70;2.30;;;;;;;7.13;75.87;99331.53;5068602;28;20043;-63
2021/09/22 01:26:39;;;;;;;3.72;2.50;;;;;;;7.06;75.83;99328.47;5056472;28;20472;-64
2021/09/22 01:29:05;;;;;;;2.30;2.10;;;;;;;7.12;75.75;99336.03;5063129;28;20025;-63
2021/09/22 01:31:37;;;;;;;3.00;2.70;;;;;;;7.06;76.17;99336.47;5064369;28;20039;-63
2021/09/22 01:34:04;;;;;;;2.85;2.13;;;;;;;6.90;76.56;99320.78;5053755;28;20487;-62
2021/09/22 01:36:30;;;;;;;2.83;2.50;;;;;;;6.78;76.71;99311.03;5067873;28;20044;-63
2021/09/22 01:38:55;;;;;;;2.65;2.45;;;;;;;6.96;76.48;99316.81;5059330;28;20099;-63
2021/09/22 01:41:21;;;;;;;2.05;1.88;;;;;;;7.05;75.65;99310.81;5060153;28;20028;-62
2021/09/22 01:43:47;;;;;;;2.65;2.40;;;;;;;6.96;76.75;99317.66;5066330;28;20044;-62
2021/09/22 01:46:12;;;;;;;4.30;2.50;;;;;;;6.98;76.37;99317.56;5055455;28;20044;-63
2021/09/22 01:48:38;;;;;;;3.53;2.30;;;;;;;7.04;75.74;99317.09;5065714;28;20414;-62
2021/09/22 01:51:06;;;;;;;2.78;2.42;;;;;;;7.09;76.07;99324.75;5059896;28;20051;-63
2021/09/22 01:53:33;;;;;;;2.67;2.38;;;;;;;7.07;75.98;99326.69;5058198;28;20037;-62
2021/09/22 01:55:59;;;;;;;4.38;2.40;;;;;;;6.92;76.74;99323.34;5068112;28;20029;-62
2021/09/22 01:58:25;;;;;;;4.20;2.80;;;;;;;6.92;77.21;99321.50;5054582;28;20029;-61
2021/09/22 02:00:52;;;;;;;4.05;2.53;;;;;;;6.93;77.28;99325.88;5064500;28;20036;-61
2021/09/22 02:03:18;;;;;;;2.92;2.65;;;;;;;7.10;76.27;99319.28;5062262;28;20068;-62
2021/09/22 02:05:44;;;;;;;3.25;2.80;;;;;;;7.02;76.86;99330.53;5056957;28;20258;-62
2021/09/22 02:08:11;;;;;;;3.15;2.85;;;;;;;7.15;76.04;99321.63;5067950;28;20127;-64
2021/09/22 02:10:37;;;;;;;3.05;2.70;;;;;;;7.09;76.15;99322.09;5056342;28;20035;-63
2021/09/22 02:13:02;;;;;;;3.92;2.55;;;;;;;6.96;76.83;99322.97;5062067;28;20063;-63
2021/09/22 02:15:28;;;;;;;4.13;2.90;;;;;;;6.96;77.16;99316.81;5063683;28;20044;-62
2021/09/22 02:17:54;;;;;;;3.88;2.65;;;;;;;7.10;76.44;99321.13;5055452;28;20044;-63
2021/09/22 02:20:20;;;;;;;3.28;2.67;;;;;;;6.93;76.83;99309.91;5067031;28;20037;-63
2021/09/22 02:22:45;;;;;;;3.58;2.38;;;;;;;6.85;77.18;99306.97;5057107;28;20021;-64
2021/09/22 02:25:12;;;;;;;2.65;2.45;;;;;;;7.06;76.70;99330.31;5061545;28;20021;-61
2021/09/22 02:27:38;;;;;;;3.45;2.33;;;;;;;7.07;76.71;99326.69;5065176;28;20106;-62
2021/09/22 02:30:06;;;;;;;2.53;2.33;;;;;;;7.18;75.98;99329.38;5054678;28;20029;-62
2021/09/22 02:32:33;;;;;;;2.55;2.22;;;;;;;7.09;76.28;99330.06;5066006;28;20376;-62
2021/09/22 02:34:58;;;;;;;3.25;2.40;;;;;;;7.15;75.69;99319.81;5057884;28;20035;-62
2021/09/22 02:37:24;;;;;;;2.17;1.90;;;;;;;7.08;75.93;99323.03;5059138;28;20041;-62
2021/09/22 02:39:49;;;;;;;2.50;2.30;;;;;;;7.01;76.26;99322.66;5065287;28;20032;-61
2021/09/22 02:42:15;;;;;;;2.58;2.05;;;;;;;7.02;76.65;99317.22;5053367;28;20028;-62
2021/09/22 02:44:40;;;;;;;2.22;2.00;;;;;;;7.01;76.77;99323.50;5064911;28;20032;-62
2021/09/22 02:47:06;;;;;;;2.53;2.08;;;;;;;7.02;76.69;99324.34;5059366;28;20078;-62
2021/09/22 02:49:31;;;;;;;2.90;2.00;;;;;;;7.13;75.76;99316.44;5057571;28;20033;-54
2021/09/22 02:51:57;;;;;;;2.13;1.85;;;;;;;6.98;76.58;99318.38;5066509;28;20456;-58
2021/09/22 02:54:22;;;;;;;2.97;1.80;;;;;;;6.99;76.65;99319.25;5054337;28;20025;-57
2021/09/22 02:56:49;;;;;;;2.05;1.83;;;;;;;6.97;76.48;99316.69;5064170;28;20036;-60
2021/09/22 02:59:14;;;;;;;6.78;1.70;;;;;;;6.97;76.83;99316.69;5058667;28;20431;-62
2021/09/22 03:01:39;;;;;;;2.40;2.00;;;;;;;6.83;76.50;99287.59;5070583;28;20028;-65
2021/09/22 03:04:05;;;;;;;3.00;2.08;;;;;;;6.99;76.68;99313.94;5053877;28;20040;-62
2021/09/22 03:06:31;;;;;;;2.35;2.10;;;;;;;6.97;76.64;99313.19;5065574;28;20017;-62
2021/09/22 03:08:56;;;;;;;3.42;2.28;;;;;;;7.02;75.94;99311.91;5057074;28;20457;-62
2021/09/22 03:11:22;;;;;;;2.15;1.48;;;;;;;7.03;75.94;99312.72;5056735;28;20039;-61
2021/09/22 03:13:47;;;;;;;3.15;2.10;;;;;;;6.81;76.43;99298.34;5064747;28;20044;-62
2021/09/22 03:16:13;;;;;;;1.88;1.60;;;;;;;6.78;77.09;99303.06;5053719;28;20409;-62
2021/09/22 03:18:38;;;;;;;2.17;1.50;;;;;;;6.68;76.32;99274.44;5063185;28;20110;-63
2021/09/22 03:21:05;;;;;;;2.20;2.00;;;;;;;6.86;77.03;99308.66;5058862;28;20035;-61
2021/09/22 03:23:31;;;;;;;2.03;1.75;;;;;;;6.97;75.58;99303.38;5057771;28;20453;-62
2021/09/22 03:25:57;;;;;;;2.35;2.03;;;;;;;6.70;75.82;99269.88;5066525;28;20063;-63
2021/09/22 03:28:23;;;;;;;2.13;1.90;;;;;;;6.88;76.40;99314.72;5052901;28;20077;-62
2021/09/22 03:30:49;;;;;;;2.22;1.85;;;;;;;6.75;76.49;99280.19;5063227;28;20467;-62
2021/09/22 03:33:15;;;;;;;2.90;1.85;;;;;;;6.92;76.60;99308.19;5059349;28;20029;-61
2021/09/22 03:35:41;;;;;;;3.38;2.00;;;;;;;7.01;75.75;99302.22;5068383;28;20051;-62
2021/09/22 03:38:06;;;;;;;3.50;2.33;;;;;;;6.78;76.02;99282.59;5053184;28;20025;-62
2021/09/22 03:40:32;;;;;;;3.92;2.10;;;;;;;7.02;75.42;99314.56;5065631;28;20095;-63
2021/09/22 03:42:58;;;;;;;2.10;1.90;;;;;;;6.73;75.75;99272.28;5057170;28;20078;-62
2021/09/22 03:45:24;;;;;;;2.42;2.00;;;;;;;6.91;75.88;99317.16;5058073;28;20033;-62
2021/09/22 03:47:49;;;;;;;3.72;2.58;;;;;;;6.87;76.33;99310.34;5063365;28;20041;-62
2021/09/22 03:50:15;;;;;;;2.63;2.33;;;;;;;6.88;76.62;99312.06;5053427;28;20037;-62
2021/09/22 03:52:41;;;;;;;2.65;2.20;;;;;;;6.72;76.05;99281.25;5064111;28;20384;-61
2021/09/22 03:55:07;;;;;;;3.85;2.80;;;;;;;6.93;76.23;99307.25;5060977;28;20036;-63
2021/09/22 03:57:32;;;;;;;3.30;2.63;;;;;;;6.95;75.85;99312.47;5060569;28;20095;-62
2021/09/22 03:59:58;;;;;;;3.22;2.47;;;;;;;6.93;76.23;99309.91;5070170;28;20035;-62
2021/09/22 04:02:23;;;;;;;4.65;2.80;;;;;;;6.95;76.68;99310.63;5057152;28;20024;-63
2021/09/22 04:04:49;;;;;;;3.15;2.78;;;;;;;7.00;76.54;99313.81;5066941;28;20108;-62
2021/09/22 04:07:15;;;;;;;3.30;2.58;;;;;;;7.16;75.39;99310.00;5063390;28;20039;-63
2021/09/22 04:09:40;;;;;;;4.70;2.42;;;;;;;7.07;75.44;99316.03;5059448;28;20056;-62
2021/09/22 04:12:06;;;;;;;4.18;3.17;;;;;;;7.00;75.14;99300.53;5070492;28;20053;-62
2021/09/22 04:14:32;;;;;;;3.33;2.80;;;;;;;6.99;75.96;99312.13;5056259;28;20102;-62
2021/09/22 04:16:58;;;;;;;3.45;2.53;;;;;;;6.89;75.49;99277.38;5065017;28;20484;-63
2021/09/22 04:19:23;;;;;;;2.90;2.42;;;;;;;7.07;75.20;99310.69;5063293;28;20084;-61
2021/09/22 04:21:49;;;;;;;3.33;2.72;;;;;;;6.95;75.81;99305.31;5058637;28;20104;-62
2021/09/22 04:24:14;;;;;;;4.07;3.00;;;;;;;7.11;74.31;99310.34;5069814;28;20376;-62
2021/09/22 04:26:40;;;;;;;4.47;2.92;;;;;;;7.07;74.80;99316.03;5058579;28;20052;-63
2021/09/22 04:29:05;;;;;;;4.90;2.95;;;;;;;7.06;74.72;99317.00;5062778;28;20049;-62
2021/09/22 04:31:31;;;;;;;4.10;3.15;;;;;;;6.87;75.31;99299.72;5066078;28;20039;-62
2021/09/22 04:33:57;;;;;;;4.35;2.92;;;;;;;6.95;75.27;99312.47;5056799;28;20033;-64
2021/09/22 04:36:24;;;;;;;4.10;2.88;;;;;;;7.00;74.60;99310.31;5068374;28;20033;-64
2021/09/22 04:38:50;;;;;;;4.85;3.50;;;;;;;7.01;74.71;99315.53;5049038;28;20048;-62
2021/09/22 04:41:16;;;;;;;5.80;3.70;;;;;;;7.02;74.40;99311.91;5053429;28;20192;-63
2021/09/22 04:43:42;;;;;;;5.00;3.05;;;;;;;7.10;74.07;99315.78;5057416;28;20112;-63
2021/09/22 04:46:08;;;;;;;4.70;3.45;;;;;;;6.95;74.69;99323.94;5036433;28;20416;-63
2021/09/22 04:48:34;;;;;;;5.07;3.50;;;;;;;6.88;75.14;99309.41;5067404;28;20492;-61
2021/09/22 04:50:59;;;;;;;5.30;3.70;;;;;;;6.88;75.10;99312.91;5060582;28;20064;-61
2021/09/22 04:53:25;;;;;;;6.55;3.53;;;;;;;6.90;74.64;99304.81;5059098;28;20064;-62
2021/09/22 04:55:50;;;;;;;7.25;3.90;;;;;;;6.98;74.49;99312.22;5067877;28;20072;-62
2021/09/22 04:58:16;;;;;;;5.78;3.40;;;;;;;6.83;75.60;99319.53;5055706;28;20423;-63
2021/09/22 05:00:42;;;;;;;6.07;3.75;;;;;;;6.71;75.19;99279.53;5064563;28;20029;-63
2021/09/22 05:03:07;;;;;;;5.70;3.28;;;;;;;6.88;75.16;99307.59;5061810;28;20035;-63
2021/09/22 05:05:33;;;;;;;4.70;3.38;;;;;;;6.80;75.79;99307.28;5058442;28;20021;-62
2021/09/22 05:08:00;;;;;;;3.85;2.90;;;;;;;6.83;76.25;99320.38;5060806;28;20028;-64
2021/09/22 05:10:27;;;;;;;5.30;3.50;;;;;;;6.89;76.78;99316.41;5039264;28;20036;-63
2021/09/22 05:12:52;;;;;;;6.50;4.47;;;;;;;6.93;76.40;99309.91;5064336;28;20053;-61
2021/09/22 05:15:18;;;;;;;4.35;3.00;;;;;;;7.09;75.57;99308.78;5062485;28;20032;-63
2021/09/22 05:17:43;;;;;;;3.85;2.67;;;;;;;7.15;75.62;99302.97;5057331;28;20060;-62
2021/09/22 05:20:10;;;;;;;3.80;2.50;;;;;;;7.09;75.82;99306.09;5068931;28;20020;-62
2021/09/22 05:22:35;;;;;;;3.22;2.70;;;;;;;7.13;76.26;99311.09;5056575;28;20035;-64
2021/09/22 05:25:01;;;;;;;3.67;2.42;;;;;;;7.29;75.17;99309.94;5063531;28;20021;-62
2021/09/22 05:27:27;;;;;;;3.08;2.38;;;;;;;7.36;74.62;99307.66;5063772;28;20358;-62
2021/09/22 05:29:52;;;;;;;3.25;2.40;;;;;;;7.46;73.94;99303.31;5056376;28;20108;-63
2021/09/22 05:32:18;;;;;;;5.25;2.80;;;;;;;7.37;74.78;99301.38;5068087;28;20028;-62
2021/09/22 05:34:43;;;;;;;2.53;1.95;;;;;;;7.37;74.98;99302.22;5056086;28;20023;-62
2021/09/22 05:37:09;;;;;;;5.18;2.40;;;;;;;7.37;74.36;99286.25;5062724;28;20124;-57
2021/09/22 05:39:35;;;;;;;4.53;2.25;;;;;;;7.47;74.85;99308.53;5063206;28;20093;-55
2021/09/22 05:42:00;;;;;;;3.38;2.20;;;;;;;7.51;75.01;99306.50;5046923;28;20465;-57
2021/09/22 05:44:26;;;;;;;4.85;2.83;;;;;;;7.67;73.86;99299.97;5068020;28;20033;-55
2021/09/22 05:46:51;;;;;;;3.05;2.40;;;;;;;7.63;74.02;99310.03;5058874;28;20111;-54
2021/09/22 05:49:17;;;;;;;3.20;2.28;;;;;;;7.80;73.58;99307.88;5059466;28;20083;-56
2021/09/22 05:51:43;;;;;;;2.97;2.20;;;;;;;7.67;73.57;99297.31;5041697;28;20035;-58
2021/09/22 05:54:09;;;;;;;5.97;2.60;;;;;;;7.58;73.19;99265.09;5053422;28;20029;-57
2021/09/22 05:56:34;;;;;;;3.83;2.40;;;;;;;7.80;73.19;99305.22;5065566;28;20025;-58
2021/09/22 05:59:00;;;;;;;4.00;2.60;;;;;;;7.82;72.76;99313.94;5054301;28;20024;-61
2021/09/22 06:01:26;;;;;;;3.03;2.35;;;;;;;7.74;73.36;99311.88;5058552;28;20032;-62
2021/09/22 06:03:51;;;;;;;3.50;2.42;;;;;;;7.76;73.30;99307.28;5055194;28;20032;-63
2021/09/22 06:06:17;;;;;;;4.43;2.92;;;;;;;7.68;74.12;99310.53;5067841;28;20029;-64
2021/09/22 06:08:42;;;;;;;14.20;8.65;;;;;;;7.68;74.65;99307.88;5055940;28;20169;-64
2021/09/22 06:11:08;;;;;;;5.22;3.50;;;;;;;7.79;74.35;99314.19;5060304;28;20037;-64
2021/09/22 06:13:33;;;;;;;6.72;3.20;;;;;;;7.91;73.53;99310.56;5063202;28;20053;-63
2021/09/22 06:15:59;;;;;;;5.10;3.20;;;;;;;7.86;73.06;99310.91;5053425;28;20094;-66
2021/09/22 06:18:25;;;;;;;7.75;3.05;;;;;;;7.80;74.40;99318.53;5046134;28;20105;-64
2021/09/22 06:20:50;;;;;;;4.25;3.33;;;;;;;7.86;74.81;99313.59;5063344;28;20048;-64
2021/09/22 06:23:16;;;;;;;5.20;3.10;;;;;;;8.01;73.61;99319.53;5061320;28;20024;-68
2021/09/22 06:25:42;;;;;;;3.85;3.35;;;;;;;8.19;71.74;99321.72;5049285;28;20036;-63
2021/09/22 06:28:07;;;;;;;4.40;3.47;;;;;;;7.90;73.65;99309.72;5063637;28;20453;-62
2021/09/22 06:30:33;;;;;;;3.50;3.03;;;;;;;7.97;73.48;99325.25;5054694;28;20020;-60
2021/09/22 06:32:58;;;;;;;4.80;3.17;;;;;;;8.06;72.28;99327.19;5062472;28;20104;-57
2021/09/22 06:35:24;;;;;;;3.97;3.10;;;;;;;7.89;73.58;99323.16;5060338;28;20024;-67
2021/09/22 06:37:50;;;;;;;4.22;3.08;;;;;;;7.90;74.09;99330.19;5055354;28;20029;-60
2021/09/22 06:40:21;;;;;;;9.55;3.30;;;;;;;7.68;74.85;99293.69;5066695;28;20086;-65
2021/09/22 06:42:47;;;;;;;4.43;3.42;;;;;;;8.01;74.51;99332.03;5056853;28;20529;-63
2021/09/22 06:45:14;;;;;;;4.53;3.30;;;;;;;8.16;73.59;99341.47;5060415;28;20163;-64
2021/09/22 06:47:40;;;;;;;4.93;3.85;;;;;;;8.10;72.99;99325.13;5064566;28;20078;-67
2021/09/22 06:50:06;;;;;;;5.60;3.72;;;;;;;8.05;73.92;99328.97;5054136;28;20040;-68
2021/09/22 06:52:32;;;;;;;5.47;3.20;;;;;;;8.15;73.68;99338.94;5048347;28;20432;-67
2021/09/22 06:54:58;;;;;;;5.82;3.20;;;;;;;8.24;73.67;99329.38;5040500;28;20024;-65
2021/09/22 06:57:24;;;;;;;3.75;2.97;;;;;;;8.36;72.26;99331.06;5056708;28;20047;-64
2021/09/22 06:59:50;;;;;;;6.07;3.05;;;;;;;8.27;72.78;99334.47;5046727;28;20036;-63
2021/09/22 07:02:15;;;;;;;4.57;3.20;;;;;;;8.24;73.54;99332.03;5053442;28;20392;-64
2021/09/22 07:04:41;;;;;;;3.60;2.95;;;;;;;8.31;72.55;99330.59;5064290;28;20100;-65
2021/09/22 07:07:07;;;;;;;3.92;3.10;;;;;;;8.32;73.36;99329.59;5059932;28;20457;-67
2021/09/22 07:09:33;;;;;;;6.50;2.85;;;;;;;8.38;73.13;99333.63;5057098;28;20029;-66
2021/09/22 07:11:58;;;;;;;5.25;3.10;;;;;;;8.43;72.74;99340.25;5047420;28;20051;-68
2021/09/22 07:14:24;;;;;;;10.57;2.92;;;;;;;8.48;72.64;99340.78;5039305;28;20461;-67
2021/09/22 07:16:49;;;;;;;3.50;2.97;;;;;;;8.47;72.65;99341.75;5043436;28;20033;-67
2021/09/22 07:19:15;;;;;;;4.10;2.95;;;;;;;8.52;72.67;99337.88;5055152;28;20033;-67
2021/09/22 07:21:41;;;;;;;5.13;2.97;;;;;;;8.60;72.13;99335.44;5054632;28;20025;-67
2021/09/22 07:24:06;;;;;;;5.43;3.10;;;;;;;8.53;71.65;99331.56;5065885;28;20039;-67
2021/09/22 07:26:32;;;;;;;3.85;3.05;;;;;;;8.45;72.42;99337.47;5036118;28;20032;-67
2021/09/22 07:28:58;;;;;;;3.92;3.00;;;;;;;8.41;73.08;99342.22;5045844;28;20036;-67
2021/09/22 07:31:24;;;;;;;4.60;3.40;;;;;;;8.47;72.52;99339.06;5064358;28;20369;-67
2021/09/22 07:33:50;;;;;;;4.90;3.55;;;;;;;8.48;72.67;99339.91;5057419;28;20033;-66
2021/09/22 07:36:15;;;;;;;4.13;3.05;;;;;;;8.54;72.99;99339.44;5067547;28;20029;-66
2021/09/22 07:38:41;;;;;;;4.78;3.17;;;;;;;8.52;73.15;99340.56;5057904;28;20032;-66
2021/09/22 07:41:07;;;;;;;5.80;3.17;;;;;;;8.56;72.52;99345.53;5063404;28;20029;-67
2021/09/22 07:43:33;;;;;;;4.18;3.20;;;;;;;8.58;72.75;99348.91;5043811;28;20388;-68
2021/09/22 07:46:00;;;;;;;4.43;2.78;;;;;;;8.67;71.94;99351.81;5047433;28;20033;-70
2021/09/22 07:48:26;;;;;;;5.10;3.20;;;;;;;8.63;71.86;99356.53;5022658;28;20142;-70
2021/09/22 07:50:51;;;;;;;3.35;2.80;;;;;;;8.55;72.27;99340.31;5070083;28;20476;-70
2021/09/22 07:53:17;;;;;;;3.97;3.20;;;;;;;8.43;71.43;99313.59;5065891;28;20029;-69
2021/09/22 07:55:43;;;;;;;3.33;2.53;;;;;;;8.58;71.54;99350.72;5041170;28;20028;-67
2021/09/22 07:58:08;;;;;;;4.10;3.00;;;;;;;8.43;70.92;99318.09;5045631;28;20044;-68
2021/09/22 08:00:34;;;;;;;3.95;3.05;;;;;;;8.67;70.75;99357.16;5026974;28;20025;-68
2021/09/22 08:03:00;;;;;;;5.80;3.05;;;;;;;8.42;70.81;99319.88;5052035;28;20940;-69
2021/09/22 08:05:27;;;;;;;4.32;3.25;;;;;;;8.35;71.71;99329.38;5043454;28;20025;-68
2021/09/22 08:07:52;;;;;;;4.78;3.30;;;;;;;8.44;71.45;99335.78;5051028;28;20119;-69
2021/09/22 08:10:19;;;;;;;5.07;3.30;;;;;;;8.60;71.82;99359.44;5053353;28;20128;-68
2021/09/22 08:12:47;;;;;;;5.35;3.15;;;;;;;8.69;72.25;99358.72;5066288;28;20558;-67
2021/09/22 08:15:14;;;;;;;7.28;3.30;;;;;;;8.57;71.67;99322.34;5063204;28;20035;-67
2021/09/22 08:17:40;;;;;;;3.90;3.35;;;;;;;8.78;71.67;99358.97;5058332;28;20124;-67
2021/09/22 08:20:08;;;;;;;5.32;3.15;;;;;;;8.90;72.02;99360.63;5068578;28;20373;-68
2021/09/22 08:22:34;;;;;;;5.70;3.10;;;;;;;9.05;70.44;99359.38;5057858;28;20494;-67
2021/09/22 08:24:59;;;;;;;4.78;3.17;;;;;;;8.98;70.36;99360.84;5062525;28;20509;-68
2021/09/22 08:27:26;;;;;;;3.75;2.83;;;;;;;8.99;71.20;99365.22;5057284;28;20118;-66
2021/09/22 08:29:52;;;;;;;7.28;2.88;;;;;;;9.00;70.77;99358.03;5064025;28;20032;-66
2021/09/22 08:32:17;;;;;;;4.28;3.53;;;;;;;9.12;70.11;99356.19;5055861;28;20029;-68
2021/09/22 08:34:43;;;;;;;3.33;2.88;;;;;;;9.18;70.47;99353.03;5070494;28;20035;-66
2021/09/22 08:37:09;;;;;;;3.70;2.83;;;;;;;9.22;69.86;99353.63;5045518;28;20035;-67
2021/09/22 08:39:34;;;;;;;3.78;2.97;;;;;;;9.32;70.64;99360.75;5052673;28;20025;-67
2021/09/22 08:42:01;;;;;;;5.82;3.70;;;;;;;9.49;69.52;99361.16;5050845;28;20025;-69
2021/09/22 08:44:27;;;;;;;4.82;3.20;;;;;;;9.51;69.64;99363.69;5038514;28;20384;-66
2021/09/22 08:46:54;;;;;;;5.40;3.25;;;;;;;9.47;69.60;99355.09;5047639;28;20025;-68
2021/09/22 08:49:20;;;;;;;4.47;2.90;;;;;;;9.56;69.37;99351.66;5045224;28;20054;-69
2021/09/22 08:51:45;;;;;;;3.50;3.00;;;;;;;9.75;68.00;99352.78;5039621;28;20147;-67
2021/09/22 08:54:12;;;;;;;5.20;3.30;;;;;;;9.73;68.29;99357.41;5050752;28;20499;-67
2021/09/22 08:56:41;;;;;;;3.25;2.88;;;;;;;9.61;68.43;99344.09;5039874;28;20024;-68
2021/09/22 08:59:08;;;;;;;7.07;3.47;;;;;;;9.67;68.19;99361.44;5062069;28;20054;-68
2021/09/22 09:01:34;;;;;;;4.00;3.25;;;;;;;9.74;67.92;99367.13;5046953;28;20113;-68
2021/09/22 09:04:13;;;;;;;5.72;3.00;;;;;;;9.79;68.62;99364.06;5055422;28;20388;-67
2021/09/22 09:06:39;;;;;;;5.28;2.70;;;;;;;9.74;68.27;99365.28;5025124;28;20032;-67
2021/09/22 09:09:05;;;;;;;4.60;3.08;;;;;;;9.81;68.38;99365.63;5062058;28;20032;-67
2021/09/22 09:11:34;;;;;;;5.32;2.92;;;;;;;9.90;68.44;99364.84;5046723;28;20058;-70
2021/09/22 09:14:02;;;;;;;7.32;3.58;;;;;;;9.98;67.13;99356.16;5032596;28;20053;-68
2021/09/22 09:16:36;;;;;;;4.13;3.65;;;;;;;9.95;67.48;99353.72;5066241;28;20154;-67
2021/09/22 09:19:09;;;;;;;3.88;2.95;;;;;;;9.95;67.38;99360.94;5059513;28;20103;-67
2021/09/22 09:21:54;;;;;;;3.80;3.22;;;;;;;10.11;68.04;99365.81;5057374;28;20063;-67
2021/09/22 09:24:36;;;;;;;4.63;3.67;;;;;;;10.14;66.50;99368.22;5049967;28;20094;-67
2021/09/22 09:27:04;;;;;;;4.57;3.33;;;;;;;9.83;66.31;99368.16;5059347;28;20115;-67
2021/09/22 09:29:29;;;;;;;4.95;3.30;;;;;;;9.45;67.11;99343.69;5041619;28;20036;-68
2021/09/22 09:32:21;;;;;;;8.27;3.42;;;;;;;9.75;67.80;99374.16;5065725;28;20442;-67
2021/09/22 09:35:07;;;;;;;4.05;2.97;;;;;;;9.84;67.58;99372.53;5027766;28;20107;-67
2021/09/22 09:37:38;;;;;;;4.15;3.10;;;;;;;9.70;68.28;99379.06;5041085;28;20055;-68
2021/09/22 09:40:19;;;;;;;4.05;3.05;;;;;;;9.73;68.70;99373.44;5052644;28;20059;-67
2021/09/22 09:42:47;;;;;;;3.50;2.97;;;;;;;9.63;68.05;99370.69;5065020;28;20028;-67
2021/09/22 09:45:13;;;;;;;3.78;3.20;;;;;;;9.64;68.00;99369.72;5059896;28;20025;-67
2021/09/22 09:47:41;;;;;;;4.90;3.10;;;;;;;9.59;68.45;99366.59;5056802;28;20525;-68
2021/09/22 09:50:22;;;;;;;3.63;2.80;;;;;;;9.73;67.64;99379.63;5050265;28;20028;-66
2021/09/22 09:52:56;;;;;;;4.63;2.50;;;;;;;9.74;67.31;99372.47;5055213;28;20088;-69
2021/09/22 09:55:24;;;;;;;8.15;3.00;;;;;;;9.77;67.85;99374.88;5041905;28;20076;-68
2021/09/22 09:57:51;;;;;;;5.03;3.10;;;;;;;9.95;67.22;99371.63;5065282;28;20495;-67
2021/09/22 10:00:22;;;;;;;4.45;3.33;;;;;;;10.15;66.70;99372.56;5052867;28;20056;-67
2021/09/22 10:02:49;;;;;;;6.38;3.22;;;;;;;10.17;66.90;99366.13;5061667;28;20094;-68
2021/09/22 10:05:14;;;;;;;5.65;3.30;;;;;;;10.20;65.57;99368.53;5057318;28;20029;-68
2021/09/22 10:07:40;;;;;;;4.22;3.58;;;;;;;9.87;66.64;99334.84;5057946;28;20043;-67
2021/09/22 10:10:07;;;;;;;4.53;3.42;;;;;;;9.87;67.10;99349.03;5066592;28;20503;-69
2021/09/22 10:12:33;;;;;;;9.10;3.90;;;;;;;9.91;67.63;99381.72;5053276;28;20052;-68
2021/09/22 10:15:02;;;;;;;5.07;3.95;;;;;;;9.97;67.58;99369.66;5061389;28;20485;-68
2021/09/22 10:17:31;;;;;;;5.60;3.10;;;;;;;10.04;66.60;99373.50;5061814;28;20139;-68
2021/09/22 10:19:59;;;;;;;4.07;3.33;;;;;;;9.81;67.53;99354.09;5054500;28;20071;-67
2021/09/22 10:22:24;;;;;;;4.80;3.40;;;;;;;9.93;67.72;99378.94;5045796;28;20086;-69
2021/09/22 10:25:08;;;;;;;4.50;3.10;;;;;;;9.91;67.29;99379.06;5076992;28;20381;-69
2021/09/22 10:27:49;;;;;;;;;;;;;;;10.30;66.69;99386.44;5082923;27;20375;-68
2021/09/22 10:31:33;;;;;;;5.75;4.00;;;;;;;9.62;68.08;99383.19;5101694;27;1442127;-69
2021/09/22 10:34:24;;;;;;;;;;;;;;;9.83;68.31;99393.06;5087984;27;1351656;-67
2021/09/22 10:37:05;;;;;;;4.60;2.80;;;;;;;9.54;68.02;99380.34;5116826;27;20375;-68
2021/09/22 10:39:45;;;;;;;7.13;3.33;;;;;;;9.54;68.52;99384.84;5148647;27;20743;-69
2021/09/22 10:42:37;;;;;;;;;;;;;;;9.87;68.05;99396.34;5072732;27;20739;-69
2021/09/22 10:45:22;;;;;;;;;;;;;;;10.08;66.50;99390.97;5128522;27;20379;-69
2021/09/22 10:48:16;;;;;;;;;;;;;;;10.05;66.51;99385.88;5108501;27;20369;-66
2021/09/22 10:51:53;;;;;;;5.00;3.05;;;;;;;9.88;67.28;99398.88;5105453;27;1347976;-65
2021/09/22 10:54:32;;;;;;;3.05;2.65;;;;;;;9.69;67.76;99390.72;5071479;28;20382;-67
2021/09/22 10:57:13;;;;;;;4.45;3.25;;;;;;;9.65;69.01;99405.34;5038195;27;2064443;-66
2021/09/22 11:00:17;;;;;;;4.85;3.35;;;;;;;9.86;67.27;99390.13;5144649;27;20335;-67
2021/09/22 11:02:54;;;;;;;4.60;3.22;;;;;;;9.74;67.06;99401.88;5104509;27;1347527;-67
2021/09/22 11:05:43;;;;;;;4.13;2.97;;;;;;;9.65;67.63;99402.66;5125321;27;19931;-66
2021/09/22 11:08:32;;;;;;;;;;;;;;;9.95;67.00;99393.03;5084479;28;20378;-68
2021/09/22 11:11:12;;;;;;;4.70;2.90;;;;;;;9.76;67.63;99394.56;5148893;27;20734;-68
2021/09/22 11:13:48;;;;;;;3.92;2.60;;;;;;;9.71;67.29;99394.94;5105329;27;1346106;-69
2021/09/22 11:16:34;;;;;;;6.80;2.60;;;;;;;9.58;67.63;99368.41;5103823;27;1329570;-67
2021/09/22 11:19:12;;;;;;;;;;;;;;;10.14;67.05;99409.19;5120626;27;20386;-66
2021/09/22 11:21:48;;;;;;;4.35;3.50;;;;;;;9.00;69.83;99406.97;5081445;27;1331265;-68
2021/09/22 11:24:33;;;;;;;;;;;;;;;9.70;69.30;99413.81;5072746;28;20378;-68
2021/09/22 11:27:18;;;;;;;3.00;2.25;;;;;;;9.73;67.30;99405.53;5098648;27;1333572;-68
2021/09/22 11:30:03;;;;;;;3.58;2.45;;;;;;;9.73;67.50;99408.19;5092725;27;1355823;-68
2021/09/22 11:32:47;;;;;;;5.18;2.65;;;;;;;9.75;67.57;99406.25;5074412;28;20370;-67
2021/09/22 11:35:29;;;;;;;4.10;2.88;;;;;;;9.76;67.74;99402.59;5093463;27;1343858;-66
2021/09/22 11:38:20;;;;;;;4.05;2.97;;;;;;;9.76;67.74;99394.56;5166032;27;20135;-66
2021/09/22 11:41:08;;;;;;;7.90;2.65;;;;;;;9.69;67.37;99382.72;5148222;27;20195;-68
2021/09/22 11:43:49;;;;;;;;;;;;;;;10.20;66.94;99403.31;5129492;27;20889;-67
2021/09/22 11:46:24;;;;;;;4.70;3.42;;;;;;;9.98;66.50;99398.09;5125125;27;1357535;-67
2021/09/22 11:49:06;;;;;;;;;;;;;;;10.19;67.05;99398.94;5076834;28;20375;-67
2021/09/22 11:51:42;;;;;;;3.28;2.80;;;;;;;9.99;66.43;99405.97;5081942;28;20374;-66